Time;durP1;ratioP1;P1;durP2;ratioP2;P2;SDS_P1;SDS_P2;PMS_P1;PMS_P2;Temp;Humidity;BMP_temperature;BMP_pressure;BME280_temperature;BME280_humidity;BME280_pressure;Samples;Min_cycle;Max_cycle;Signal;HPM_P1;HPM_P2
2021/06/25 00:01:42;;;;;;;4.40;3.50;;;;;;;16.69;100.00;155650.16;4977630;28;20801;-75
2021/06/25 00:04:19;;;;;;;4.03;3.60;;;;;;;16.62;100.00;155631.97;4971318;28;20442;-75
2021/06/25 00:06:54;;;;;;;3.40;3.10;;;;;;;16.66;100.00;155641.03;4978225;28;20478;-76
2021/06/25 00:09:30;;;;;;;3.77;3.40;;;;;;;16.59;100.00;155624.16;4972322;28;20442;-75
2021/06/25 00:12:07;;;;;;;4.20;3.10;;;;;;;16.57;100.00;155618.97;4989218;28;20462;-75
2021/06/25 00:14:42;;;;;;;3.43;2.70;;;;;;;16.63;100.00;155633.22;4992609;28;20474;-75
2021/06/25 00:17:18;;;;;;;3.70;3.10;;;;;;;16.55;100.00;155613.72;4987123;28;20450;-75
2021/06/25 00:19:55;;;;;;;5.00;3.40;;;;;;;16.54;100.00;155609.84;4961063;28;20576;-75
2021/06/25 00:22:31;;;;;;;3.57;3.27;;;;;;;16.44;100.00;155585.09;4957622;28;20458;-75
2021/06/25 00:25:07;;;;;;;4.90;3.23;;;;;;;16.42;100.00;155581.16;4969577;28;20450;-75
2021/06/25 00:27:44;;;;;;;3.60;3.07;;;;;;;16.42;100.00;155581.16;4975182;28;20449;-76
2021/06/25 00:30:20;;;;;;;3.17;2.50;;;;;;;16.40;100.00;155575.97;4936821;29;20885;-75
2021/06/25 00:32:56;;;;;;;2.60;2.40;;;;;;;16.37;100.00;155566.84;4958209;28;20462;-75
2021/06/25 00:35:33;;;;;;;4.90;2.80;;;;;;;16.35;100.00;155562.97;4953342;29;20546;-75
2021/06/25 00:38:08;;;;;;;3.30;2.57;;;;;;;16.41;100.00;155578.56;4964051;28;20553;-75
2021/06/25 00:40:44;;;;;;;3.10;2.80;;;;;;;16.32;100.00;155553.84;4975530;28;20489;-75
2021/06/25 00:43:20;;;;;;;2.50;2.30;;;;;;;16.38;100.00;155569.47;4971059;28;20426;-75
2021/06/25 00:45:55;;;;;;;2.43;2.23;;;;;;;16.36;100.00;155564.28;4977401;28;20438;-75
2021/06/25 00:48:31;;;;;;;2.47;2.27;;;;;;;16.30;100.00;155548.66;4971478;28;21036;-75
2021/06/25 00:51:08;;;;;;;2.63;2.43;;;;;;;16.30;100.00;155548.66;4968440;28;20450;-76
2021/06/25 00:53:44;;;;;;;3.00;2.17;;;;;;;16.29;100.00;155546.06;4960727;28;20446;-75
2021/06/25 00:56:20;;;;;;;2.60;2.13;;;;;;;16.24;100.00;155534.34;4976659;28;20447;-75
2021/06/25 00:58:55;;;;;;;2.43;2.23;;;;;;;16.29;100.00;155546.06;4974997;28;20509;-75
2021/06/25 01:01:31;;;;;;;3.70;2.40;;;;;;;16.26;100.00;155538.25;4975495;28;20486;-75
2021/06/25 01:04:06;;;;;;;2.70;2.20;;;;;;;16.24;100.00;155533.06;4968717;28;20525;-75
2021/06/25 01:06:44;;;;;;;2.87;1.93;;;;;;;16.24;100.00;155534.34;4976027;28;20462;-75
2021/06/25 01:09:21;;;;;;;3.20;2.00;;;;;;;16.22;100.00;155527.84;4970068;28;20450;-75
2021/06/25 01:11:56;;;;;;;2.60;2.10;;;;;;;16.12;100.00;155501.88;4976353;28;20443;-75
2021/06/25 01:14:32;;;;;;;2.70;2.30;;;;;;;16.18;100.00;155517.44;4971643;28;20458;-75
2021/06/25 01:17:08;;;;;;;2.17;1.90;;;;;;;16.18;100.00;155518.75;4949545;29;20439;-75
2021/06/25 01:19:43;;;;;;;2.40;1.67;;;;;;;16.16;100.00;155512.25;4960127;28;20965;-75
2021/06/25 01:22:25;;;;;;;2.80;1.80;;;;;;;16.14;100.00;155507.06;4955181;28;20442;-76
2021/06/25 01:25:04;;;;;;;2.30;1.97;;;;;;;16.14;100.00;155507.06;4974918;28;20493;-75
2021/06/25 01:27:40;;;;;;;3.80;1.93;;;;;;;16.07;100.00;155488.88;4970066;28;20481;-75
2021/06/25 01:30:20;;;;;;;2.00;1.40;;;;;;;16.14;100.00;155507.06;4975980;28;20447;-75
2021/06/25 01:32:57;;;;;;;3.57;2.03;;;;;;;16.14;100.00;155508.38;4975445;28;20454;-75
2021/06/25 01:35:33;;;;;;;2.10;1.53;;;;;;;16.16;100.00;155512.25;4975777;28;20454;-76
2021/06/25 01:38:11;;;;;;;2.37;1.50;;;;;;;16.15;100.00;155510.94;4968508;28;20474;-75
2021/06/25 01:40:46;;;;;;;2.20;2.00;;;;;;;16.07;100.00;155490.13;4975882;28;20569;-75
2021/06/25 01:43:24;;;;;;;2.80;1.73;;;;;;;16.05;100.00;155484.94;4969818;28;21149;-75
2021/06/25 01:45:59;;;;;;;1.93;1.60;;;;;;;16.08;100.00;155492.75;4975542;28;20478;-75
2021/06/25 01:48:35;;;;;;;2.07;1.60;;;;;;;16.09;100.00;155495.38;4971276;28;20972;-75
2021/06/25 01:51:10;;;;;;;1.90;1.67;;;;;;;16.09;100.00;155494.06;4953735;28;20455;-75
2021/06/25 01:53:47;;;;;;;2.27;1.20;;;;;;;16.05;100.00;155483.63;4974238;28;21012;-75
2021/06/25 01:56:23;;;;;;;1.87;1.37;;;;;;;16.03;100.00;155478.44;4966741;28;20462;-75
2021/06/25 01:58:59;;;;;;;2.07;1.30;;;;;;;16.00;100.00;155470.63;4967833;28;20478;-75
2021/06/25 02:01:35;;;;;;;2.43;1.00;;;;;;;16.01;100.00;155473.25;4971622;28;20470;-75
2021/06/25 02:04:10;;;;;;;1.70;1.30;;;;;;;15.94;100.00;155455.06;4967626;28;20454;-75
2021/06/25 02:06:46;;;;;;;1.40;1.20;;;;;;;15.97;100.00;155462.81;4990736;28;20450;-75
2021/06/25 02:09:23;;;;;;;1.20;1.03;;;;;;;15.93;100.00;155452.44;4975016;28;20442;-75
2021/06/25 02:11:59;;;;;;;1.40;0.90;;;;;;;15.94;100.00;155455.06;4959219;28;20442;-75
2021/06/25 02:14:35;;;;;;;1.60;1.50;;;;;;;15.97;100.00;155464.13;4989496;28;21130;-75
2021/06/25 02:17:10;;;;;;;1.47;1.30;;;;;;;15.95;100.00;155457.63;4974935;28;20441;-76
2021/06/25 02:19:46;;;;;;;2.50;1.70;;;;;;;15.94;100.00;155455.06;4972709;28;20446;-76
2021/06/25 02:22:22;;;;;;;1.50;1.40;;;;;;;15.95;100.00;155457.63;4969319;28;20504;-75
2021/06/25 02:24:59;;;;;;;1.83;1.50;;;;;;;15.94;100.00;155456.31;4973849;28;20815;-75
2021/06/25 02:27:34;;;;;;;2.37;1.80;;;;;;;15.93;100.00;155453.75;4973423;28;20879;-75
2021/06/25 02:30:15;;;;;;;4.80;1.80;;;;;;;15.95;100.00;155457.63;4967688;28;20450;-74
2021/06/25 02:32:51;;;;;;;1.97;1.77;;;;;;;15.90;100.00;155444.63;4973982;28;20845;-75
2021/06/25 02:35:27;;;;;;;2.03;1.77;;;;;;;15.90;100.00;155444.63;4966203;28;21200;-75
2021/06/25 02:38:02;;;;;;;2.27;1.97;;;;;;;15.89;100.00;155442.00;4941915;28;20443;-75
2021/06/25 02:40:39;;;;;;;3.20;2.20;;;;;;;15.87;100.00;155436.81;4958422;28;20981;-75
2021/06/25 02:43:15;;;;;;;2.23;2.00;;;;;;;15.89;100.00;155442.00;4967671;28;20485;-75
2021/06/25 02:45:50;;;;;;;2.07;1.97;;;;;;;15.84;100.00;155431.63;4955343;28;20471;-76
2021/06/25 02:48:26;;;;;;;2.70;2.50;;;;;;;15.82;100.00;155426.44;4955420;29;20427;-75
2021/06/25 02:51:01;;;;;;;2.33;2.13;;;;;;;15.85;100.00;155432.94;4940073;29;20875;-75
2021/06/25 02:53:37;;;;;;;1.93;1.73;;;;;;;15.87;100.00;155438.13;4964515;28;20778;-75
2021/06/25 02:56:14;;;;;;;2.40;2.20;;;;;;;15.90;100.00;155445.94;4974638;28;20450;-75
2021/06/25 02:58:50;;;;;;;2.10;1.90;;;;;;;15.92;100.00;155449.81;4957376;28;20834;-75
2021/06/25 03:01:25;;;;;;;5.57;2.10;;;;;;;15.93;100.00;155452.44;4968815;28;20481;-75
2021/06/25 03:04:01;;;;;;;2.67;2.47;;;;;;;15.90;100.00;155444.63;4973258;28;20447;-75
2021/06/25 03:06:37;;;;;;;3.40;2.27;;;;;;;15.95;100.00;155457.63;4974813;28;20918;-75
2021/06/25 03:09:12;;;;;;;2.40;2.20;;;;;;;15.89;100.00;155442.00;4952797;28;20458;-75
2021/06/25 03:11:49;;;;;;;2.70;2.50;;;;;;;15.93;100.00;155452.44;4972866;28;20450;-75
2021/06/25 03:14:25;;;;;;;3.60;2.37;;;;;;;15.90;100.00;155445.94;4949376;29;20475;-75
2021/06/25 03:17:00;;;;;;;3.43;2.77;;;;;;;15.90;100.00;155445.94;4961181;28;20529;-75
2021/06/25 03:19:36;;;;;;;2.70;2.50;;;;;;;15.87;100.00;155438.13;4974145;28;21111;-76
2021/06/25 03:22:12;;;;;;;2.53;2.27;;;;;;;15.86;100.00;155435.50;4966871;28;20474;-75
2021/06/25 03:24:48;;;;;;;2.73;2.53;;;;;;;15.86;100.00;155434.25;4972878;28;20838;-75
2021/06/25 03:27:25;;;;;;;2.97;2.67;;;;;;;15.82;100.00;155426.44;4968836;28;20437;-75
2021/06/25 03:30:00;;;;;;;3.33;2.23;;;;;;;15.77;100.00;155413.47;4972848;28;20490;-75
2021/06/25 03:32:36;;;;;;;2.83;2.53;;;;;;;15.77;100.00;155413.47;4971338;28;20969;-75
2021/06/25 03:35:24;;;;;;;5.50;2.43;;;;;;;15.80;100.00;155419.94;4970638;28;20458;-76
2021/06/25 03:38:09;;;;;;;3.13;2.83;;;;;;;15.80;100.00;155421.25;4966264;28;20937;-75
2021/06/25 03:40:44;;;;;;;3.00;2.70;;;;;;;15.78;100.00;155416.03;4973922;28;20576;-75
2021/06/25 03:43:21;;;;;;;3.50;2.53;;;;;;;15.86;100.00;155434.25;4967782;28;20442;-76
2021/06/25 03:45:57;;;;;;;3.20;2.90;;;;;;;15.82;100.00;155425.13;4972202;28;20814;-75
2021/06/25 03:48:32;;;;;;;2.60;2.40;;;;;;;15.74;100.00;155404.34;4972202;28;20462;-75
2021/06/25 03:51:08;;;;;;;2.30;2.10;;;;;;;15.80;100.00;155421.25;4973335;28;20573;-74
2021/06/25 03:53:44;;;;;;;3.57;2.00;;;;;;;15.81;100.00;155422.53;4974203;28;20415;-75
2021/06/25 03:56:19;;;;;;;2.40;2.20;;;;;;;15.79;100.00;155418.63;4956292;28;20454;-75
2021/06/25 03:58:56;;;;;;;4.80;2.00;;;;;;;15.79;100.00;155417.34;4939131;28;20554;-75
2021/06/25 04:01:32;;;;;;;2.47;2.27;;;;;;;15.79;100.00;155417.34;4922816;29;20541;-75
2021/06/25 04:04:07;;;;;;;2.60;2.30;;;;;;;15.74;100.00;155405.66;4937267;29;20494;-75
2021/06/25 04:06:43;;;;;;;2.90;2.60;;;;;;;15.77;100.00;155413.47;4937621;29;20451;-75
2021/06/25 04:09:19;;;;;;;2.80;2.03;;;;;;;15.81;100.00;155423.81;4936758;29;20443;-75
2021/06/25 04:11:54;;;;;;;2.67;2.00;;;;;;;15.81;100.00;155423.81;4953393;29;20838;-75
2021/06/25 04:14:31;;;;;;;3.57;2.23;;;;;;;15.80;100.00;155419.94;4922089;29;20852;-76
2021/06/25 04:17:07;;;;;;;2.80;2.50;;;;;;;15.83;100.00;155429.03;4946736;29;20952;-75
2021/06/25 04:19:42;;;;;;;2.17;1.97;;;;;;;15.76;100.00;155410.84;4924256;29;20958;-75
2021/06/25 04:22:19;;;;;;;3.60;2.10;;;;;;;15.78;100.00;155416.03;4922621;29;20939;-75
2021/06/25 04:24:55;;;;;;;2.73;2.20;;;;;;;15.73;100.00;155403.03;4954267;28;20490;-75
2021/06/25 04:27:31;;;;;;;2.70;1.90;;;;;;;15.69;100.00;155392.66;4956676;29;20530;-75
2021/06/25 04:30:11;;;;;;;2.60;2.10;;;;;;;15.69;100.00;155391.34;4946896;28;21086;-75
2021/06/25 04:32:47;;;;;;;2.13;1.90;;;;;;;15.71;100.00;155397.84;4940576;29;20879;-75
2021/06/25 04:35:23;;;;;;;2.40;2.20;;;;;;;15.75;100.00;155408.22;4940625;29;20971;-75
2021/06/25 04:38:01;;;;;;;2.67;2.10;;;;;;;15.79;100.00;155418.63;4941311;29;20948;-75
2021/06/25 04:40:39;;;;;;;5.33;2.93;;;;;;;15.82;100.00;155425.13;4950907;29;20494;-75
2021/06/25 04:43:16;;;;;;;2.63;2.20;;;;;;;15.84;100.00;155430.31;4957629;29;20443;-74
2021/06/25 04:45:53;;;;;;;2.30;2.10;;;;;;;15.83;100.00;155429.03;4940641;29;20450;-75
2021/06/25 04:48:29;;;;;;;2.00;1.80;;;;;;;15.76;100.00;155410.84;4956977;29;20478;-75
2021/06/25 04:51:05;;;;;;;2.27;1.93;;;;;;;15.89;100.00;155443.31;4957505;29;20451;-75
2021/06/25 04:53:41;;;;;;;2.30;2.10;;;;;;;15.88;100.00;155439.44;4957237;29;20852;-75
2021/06/25 04:56:16;;;;;;;2.10;1.90;;;;;;;15.93;100.00;155452.44;4940049;29;20916;-75
2021/06/25 04:58:52;;;;;;;2.23;2.03;;;;;;;16.00;100.00;155470.63;4956837;28;20478;-75
2021/06/25 05:01:29;;;;;;;2.10;1.80;;;;;;;15.97;100.00;155462.81;4957797;29;20826;-78
2021/06/25 05:04:05;;;;;;;2.67;2.47;;;;;;;16.01;100.00;155473.25;4957097;29;20502;-78
2021/06/25 05:06:40;;;;;;;2.20;2.00;;;;;;;16.07;100.00;155488.88;4955975;29;20965;-78
2021/06/25 05:09:16;;;;;;;2.23;1.87;;;;;;;16.07;100.00;155488.88;4939523;28;20452;-78
2021/06/25 05:11:52;;;;;;;3.10;2.80;;;;;;;16.09;100.00;155494.06;4940067;29;20875;-78
2021/06/25 05:14:28;;;;;;;3.43;2.50;;;;;;;16.15;100.00;155509.66;4956819;29;20447;-78
2021/06/25 05:17:05;;;;;;;2.53;2.33;;;;;;;16.13;100.00;155504.44;4955390;28;20458;-78
2021/06/25 05:19:41;;;;;;;3.27;2.97;;;;;;;16.22;100.00;155529.16;4946312;29;20452;-75
2021/06/25 05:22:16;;;;;;;2.63;2.40;;;;;;;16.24;100.00;155533.06;4936346;29;20460;-76
2021/06/25 05:24:52;;;;;;;4.07;2.30;;;;;;;16.19;100.00;155520.03;4936471;29;20539;-75
2021/06/25 05:27:28;;;;;;;2.67;2.47;;;;;;;16.23;100.00;155530.47;4920447;29;21034;-76
2021/06/25 05:30:07;;;;;;;3.23;2.63;;;;;;;16.26;100.00;155538.25;4955673;29;20459;-75
2021/06/25 05:32:44;;;;;;;3.80;2.30;;;;;;;16.22;100.00;155527.84;4939388;29;20889;-75
2021/06/25 05:35:20;;;;;;;2.50;2.30;;;;;;;16.32;100.00;155553.84;4924573;28;20447;-75
2021/06/25 05:37:56;;;;;;;2.80;2.33;;;;;;;16.25;100.00;155535.66;4955610;29;20439;-75
2021/06/25 05:40:32;;;;;;;3.57;2.73;;;;;;;16.32;100.00;155555.16;4949498;28;20476;-75
2021/06/25 05:43:11;;;;;;;2.27;1.87;;;;;;;16.33;100.00;155556.47;4920899;29;20558;-75
2021/06/25 05:45:47;;;;;;;2.27;1.90;;;;;;;16.31;100.00;155552.56;4936976;29;20491;-75
2021/06/25 05:48:24;;;;;;;2.10;1.90;;;;;;;16.31;100.00;155551.25;4951819;29;20459;-75
2021/06/25 05:50:59;;;;;;;2.70;2.20;;;;;;;16.29;100.00;155546.06;4941927;29;20561;-75
2021/06/25 05:53:35;;;;;;;2.27;1.70;;;;;;;16.29;100.00;155547.34;4936171;29;20462;-76
2021/06/25 05:56:11;;;;;;;4.90;2.00;;;;;;;16.38;100.00;155569.47;4938909;29;20451;-76
2021/06/25 05:58:46;;;;;;;2.07;1.87;;;;;;;16.43;100.00;155582.47;4936639;29;20483;-75
2021/06/25 06:01:22;;;;;;;3.17;1.60;;;;;;;16.47;100.00;155591.59;4952775;29;20491;-75
2021/06/25 06:03:59;;;;;;;2.70;1.70;;;;;;;16.48;100.00;155594.16;4935788;29;20477;-75
2021/06/25 06:06:35;;;;;;;1.67;1.43;;;;;;;16.48;100.00;155594.16;4936041;29;20463;-75
2021/06/25 06:09:11;;;;;;;1.30;1.10;;;;;;;16.46;100.00;155590.28;4921127;29;20982;-76
2021/06/25 06:11:46;;;;;;;1.60;1.00;;;;;;;16.44;100.00;155585.09;4935674;29;20451;-76
2021/06/25 06:14:22;;;;;;;1.03;0.80;;;;;;;16.43;100.00;155583.78;4933836;29;20463;-74
2021/06/25 06:16:58;;;;;;;1.40;0.83;;;;;;;16.41;100.00;155577.28;4935259;29;20491;-75
2021/06/25 06:19:40;;;;;;;1.67;1.20;;;;;;;16.40;100.00;155574.66;4928958;29;20460;-75
2021/06/25 06:31:14;;;;;;;1.90;1.17;;;;;;;16.38;100.00;155569.47;4955505;28;20444;-75
2021/06/25 06:33:54;;;;;;;2.57;2.03;;;;;;;16.44;100.00;155585.09;4936200;29;20447;-75
2021/06/25 06:36:32;;;;;;;1.30;1.10;;;;;;;16.52;100.00;155605.88;4938100;29;20451;-75
2021/06/25 06:39:09;;;;;;;1.87;1.67;;;;;;;16.71;100.00;155655.34;4937807;29;20534;-75
2021/06/25 06:41:44;;;;;;;1.90;1.17;;;;;;;16.85;100.00;155690.50;4922960;29;20550;-75
2021/06/25 06:44:20;;;;;;;1.50;1.30;;;;;;;16.99;100.00;155728.25;4937582;29;20962;-75
2021/06/25 06:46:55;;;;;;;1.60;1.40;;;;;;;17.09;100.00;155752.94;4951187;28;20446;-76
2021/06/25 06:49:31;;;;;;;1.60;1.30;;;;;;;17.08;100.00;155750.34;4944119;28;20475;-75
2021/06/25 06:52:08;;;;;;;1.97;1.40;;;;;;;17.06;100.00;155745.13;4937968;29;20486;-75
2021/06/25 06:54:44;;;;;;;1.70;1.33;;;;;;;17.05;100.00;155742.53;4937797;29;20823;-75
2021/06/25 06:57:20;;;;;;;2.47;1.37;;;;;;;17.16;100.00;155771.16;4922838;29;20570;-75
2021/06/25 06:59:55;;;;;;;2.07;1.37;;;;;;;17.23;100.00;155788.09;4909824;29;20459;-75
2021/06/25 07:02:31;;;;;;;1.80;1.50;;;;;;;17.23;100.00;155789.41;4926493;29;20489;-75
2021/06/25 07:05:09;;;;;;;2.13;1.80;;;;;;;17.29;100.00;155805.00;4936282;29;20555;-76
2021/06/25 07:07:46;;;;;;;2.20;1.40;;;;;;;17.22;100.00;155785.47;4930509;29;20467;-76
2021/06/25 07:10:21;;;;;;;2.07;1.40;;;;;;;17.21;100.00;155784.16;4932276;29;20870;-76
2021/06/25 07:12:57;;;;;;;1.70;1.50;;;;;;;17.20;100.00;155780.28;4953777;29;20448;-76
2021/06/25 07:15:32;;;;;;;4.70;1.23;;;;;;;17.06;100.00;155745.13;4959815;28;20499;-76
2021/06/25 07:18:08;;;;;;;1.50;1.20;;;;;;;16.98;100.00;155724.31;4936466;29;20443;-76
2021/06/25 07:20:44;;;;;;;1.67;1.07;;;;;;;16.99;100.00;155726.94;4936533;29;20565;-76
2021/06/25 07:23:21;;;;;;;1.40;1.30;;;;;;;17.04;100.00;155739.94;4949004;28;20479;-76
2021/06/25 07:25:58;;;;;;;1.17;0.90;;;;;;;17.00;100.00;155730.81;4947659;28;20538;-76
2021/06/25 07:28:35;;;;;;;1.27;0.90;;;;;;;16.94;100.00;155713.94;4949081;28;20447;-76
2021/06/25 07:31:11;;;;;;;1.57;1.30;;;;;;;16.92;100.00;155710.00;4952931;29;20462;-76
2021/06/25 07:33:47;;;;;;;1.50;1.33;;;;;;;16.78;100.00;155673.59;4946204;28;20527;-76
2021/06/25 07:36:22;;;;;;;1.40;0.90;;;;;;;16.79;100.00;155676.19;4953709;28;20459;-76
2021/06/25 07:39:00;;;;;;;1.90;1.60;;;;;;;16.83;100.00;155685.31;4951956;28;21049;-75
2021/06/25 07:41:36;;;;;;;1.80;1.53;;;;;;;16.88;100.00;155698.31;4941201;28;20456;-76
2021/06/25 07:44:11;;;;;;;1.90;1.70;;;;;;;16.92;100.00;155708.69;4934829;29;20451;-75
2021/06/25 07:46:47;;;;;;;3.43;2.47;;;;;;;16.94;100.00;155713.94;4925072;29;20459;-75
2021/06/25 07:49:22;;;;;;;3.00;2.50;;;;;;;16.93;100.00;155711.31;4934207;29;20668;-76
2021/06/25 07:51:58;;;;;;;3.10;2.80;;;;;;;16.99;100.00;155726.94;4952875;29;20451;-75
2021/06/25 07:54:35;;;;;;;3.50;2.60;;;;;;;16.98;100.00;155725.63;4953559;29;20451;-75
2021/06/25 07:57:10;;;;;;;3.17;2.87;;;;;;;17.02;100.00;155736.00;4953584;28;20954;-76
2021/06/25 07:59:46;;;;;;;3.60;3.30;;;;;;;17.00;100.00;155730.81;4941685;29;20450;-76
2021/06/25 08:02:22;;;;;;;3.60;2.97;;;;;;;17.12;100.00;155759.47;4939509;29;20537;-75
2021/06/25 08:04:57;;;;;;;3.97;3.20;;;;;;;17.12;100.00;155759.47;4928491;29;20881;-75
2021/06/25 08:07:33;;;;;;;4.07;3.10;;;;;;;17.07;100.00;155746.44;4938767;29;20459;-75
2021/06/25 08:10:11;;;;;;;3.40;3.10;;;;;;;17.05;100.00;155743.81;4954262;29;20466;-76
2021/06/25 08:12:46;;;;;;;3.20;2.90;;;;;;;17.09;100.00;155752.94;4924346;29;20459;-75
2021/06/25 08:15:22;;;;;;;3.47;3.17;;;;;;;17.20;100.00;155780.28;4939557;29;20463;-75
2021/06/25 08:17:58;;;;;;;3.50;3.13;;;;;;;17.32;100.00;155812.81;4949031;28;20487;-75
2021/06/25 08:20:34;;;;;;;3.90;3.60;;;;;;;17.52;100.00;155863.59;4956605;28;20935;-76
2021/06/25 08:23:10;;;;;;;4.90;3.40;;;;;;;17.78;100.00;155931.31;4939582;29;20483;-75
2021/06/25 08:25:47;;;;;;;4.53;3.80;;;;;;;18.05;100.00;156000.34;4957373;29;20985;-75
2021/06/25 08:28:22;;;;;;;3.70;3.40;;;;;;;18.22;100.00;156045.91;4936729;28;20975;-75
2021/06/25 08:30:58;;;;;;;3.90;3.50;;;;;;;18.34;100.00;156075.88;4940555;29;20463;-75
2021/06/25 08:33:33;;;;;;;4.17;3.77;;;;;;;18.72;100.00;156174.91;4939367;29;20467;-75
2021/06/25 08:36:09;;;;;;;3.87;3.47;;;;;;;19.00;100.00;156246.59;4938065;28;20463;-75
2021/06/25 08:38:45;;;;;;;3.80;2.90;;;;;;;19.19;100.00;156296.13;4938725;29;20455;-75
2021/06/25 08:41:22;;;;;;;2.93;2.63;;;;;;;19.25;100.00;156311.72;4938242;29;20455;-75
2021/06/25 08:43:57;;;;;;;3.40;3.00;;;;;;;19.21;100.00;156300.00;4937041;29;20491;-75
2021/06/25 08:46:33;;;;;;;3.90;3.50;;;;;;;19.16;100.00;156288.28;4937878;29;20451;-75
2021/06/25 08:49:10;;;;;;;4.30;3.27;;;;;;;19.07;100.00;156264.81;4955705;28;20866;-75
2021/06/25 08:51:48;;;;;;;3.87;3.20;;;;;;;18.99;100.00;156242.66;4936431;29;21039;-75
2021/06/25 08:54:24;;;;;;;3.90;3.20;;;;;;;18.84;100.00;156206.19;4947461;29;20458;-76
2021/06/25 08:57:04;;;;;;;3.47;3.17;;;;;;;18.64;100.00;156152.75;4936138;28;20463;-75
2021/06/25 08:59:39;;;;;;;3.50;3.20;;;;;;;18.35;100.00;156077.19;4937077;29;20539;-76
2021/06/25 09:02:15;;;;;;;3.30;3.00;;;;;;;18.19;100.00;156036.75;4936571;29;20858;-76
2021/06/25 09:04:51;;;;;;;3.80;3.30;;;;;;;17.97;100.00;155980.81;4955905;29;20451;-76
2021/06/25 09:07:40;;;;;;;4.03;3.47;;;;;;;17.85;100.00;155949.53;4938335;29;20889;-75
2021/06/25 09:10:17;;;;;;;4.03;3.43;;;;;;;17.79;100.00;155933.91;4936523;29;20468;-76
2021/06/25 09:13:07;;;;;;;3.47;3.07;;;;;;;17.79;100.00;155932.63;4950507;28;20444;-76
2021/06/25 09:15:43;;;;;;;3.40;3.10;;;;;;;17.74;100.00;155919.63;4954813;29;20542;-76
2021/06/25 09:18:18;;;;;;;3.83;3.40;;;;;;;17.70;100.00;155910.50;4954730;28;20538;-75
2021/06/25 09:20:54;;;;;;;3.70;3.33;;;;;;;17.67;100.00;155902.69;4938066;29;20869;-75
2021/06/25 09:23:36;;;;;;;5.10;3.63;;;;;;;17.60;100.00;155884.47;4938567;29;20511;-75
2021/06/25 09:26:13;;;;;;;3.57;3.23;;;;;;;17.53;100.00;155867.53;4939013;29;20475;-75
2021/06/25 09:28:51;;;;;;;5.63;4.37;;;;;;;17.51;100.00;155860.97;4955781;29;20474;-75
2021/06/25 09:31:28;;;;;;;4.67;4.27;;;;;;;17.49;100.00;155855.78;4955194;29;20530;-75
2021/06/25 09:34:04;;;;;;;4.80;4.37;;;;;;;17.46;100.00;155847.94;4938441;29;20526;-76
2021/06/25 09:36:40;;;;;;;5.70;4.53;;;;;;;17.43;100.00;155840.13;4935990;29;20459;-75
2021/06/25 09:39:16;;;;;;;4.63;4.00;;;;;;;17.39;100.00;155831.06;4926347;29;20460;-75
2021/06/25 09:41:51;;;;;;;5.63;5.10;;;;;;;17.44;100.00;155842.75;4943999;28;20467;-76
2021/06/25 09:44:28;;;;;;;5.47;4.97;;;;;;;17.56;100.00;155874.03;4940985;29;20898;-75
2021/06/25 09:47:04;;;;;;;5.10;4.60;;;;;;;17.55;100.00;155872.72;4922072;29;20459;-76
2021/06/25 09:49:41;;;;;;;5.43;4.63;;;;;;;17.60;100.00;155885.78;4936283;28;20443;-76
2021/06/25 09:52:17;;;;;;;5.50;4.83;;;;;;;17.61;100.00;155888.34;4938014;29;20451;-76
2021/06/25 09:55:07;;;;;;;5.23;4.40;;;;;;;17.73;100.00;155917.00;4926494;29;20506;-75
2021/06/25 09:58:13;;;;;;;5.73;4.80;;;;;;;17.80;100.00;155936.53;4932331;29;20891;-75
2021/06/25 10:03:50;;;;;;;5.20;4.70;;;;;;;17.85;100.00;155948.22;4938489;29;20555;-75
2021/06/25 10:06:27;;;;;;;5.40;4.90;;;;;;;17.84;100.00;155946.97;4937572;29;20479;-76
2021/06/25 10:09:04;;;;;;;7.77;4.90;;;;;;;17.85;100.00;155949.53;4951449;28;20447;-75
2021/06/25 10:11:39;;;;;;;7.50;5.30;;;;;;;17.83;100.00;155944.34;4935499;28;20464;-76
2021/06/25 10:14:15;;;;;;;5.90;5.30;;;;;;;17.87;100.00;155953.47;4935323;29;21080;-75
2021/06/25 10:16:52;;;;;;;6.40;5.80;;;;;;;17.74;100.00;155919.63;4921815;29;21040;-75
2021/06/25 10:19:28;;;;;;;6.17;5.20;;;;;;;17.80;100.00;155936.53;4953609;29;20460;-75
2021/06/25 10:22:05;;;;;;;6.10;5.30;;;;;;;17.94;100.00;155973.00;4934163;28;20466;-75
2021/06/25 10:24:43;;;;;;;7.07;5.87;;;;;;;17.94;100.00;155973.00;4937115;29;20959;-75
2021/06/25 10:27:20;;;;;;;8.43;6.03;;;;;;;17.88;100.00;155956.03;4953267;28;20440;-75
2021/06/25 10:29:57;;;;;;;7.00;6.30;;;;;;;17.80;100.00;155936.53;4952383;28;20463;-76
2021/06/25 10:32:38;;;;;;;6.80;6.10;;;;;;;17.80;100.00;155936.53;4933858;29;20456;-76
2021/06/25 10:35:14;;;;;;;7.83;6.77;;;;;;;17.84;100.00;155946.97;4920171;29;20467;-76
2021/06/25 10:37:50;;;;;;;7.50;6.63;;;;;;;17.84;100.00;155946.97;4953139;29;20452;-75
2021/06/25 10:40:27;;;;;;;9.63;7.13;;;;;;;17.97;100.00;155980.81;4935832;28;20822;-75
2021/06/25 10:43:03;;;;;;;7.87;6.73;;;;;;;18.11;100.00;156017.25;4952411;29;20475;-76
2021/06/25 10:45:39;;;;;;;8.43;7.63;;;;;;;18.14;100.00;156023.75;4936524;28;20862;-76
2021/06/25 10:48:36;;;;;;;9.03;6.93;;;;;;;18.27;100.00;156057.59;4939696;29;20451;-76
2021/06/25 10:51:22;;;;;;;9.57;7.50;;;;;;;18.34;100.00;156075.88;4954177;28;20443;-76
2021/06/25 10:54:10;;;;;;;8.00;7.07;;;;;;;18.32;100.00;156070.63;4918456;29;20440;-76
2021/06/25 10:57:06;;;;;;;8.10;7.30;;;;;;;18.32;100.00;156070.63;4930290;29;20487;-76
2021/06/25 10:59:45;;;;;;;7.40;6.60;;;;;;;18.30;100.00;156064.13;4952305;29;20479;-76
2021/06/25 11:02:20;;;;;;;7.67;6.93;;;;;;;18.20;100.00;156040.69;4952419;29;20447;-76
2021/06/25 11:04:57;;;;;;;9.13;6.40;;;;;;;18.18;100.00;156034.19;4955057;28;20427;-76
2021/06/25 11:07:43;;;;;;;7.30;6.60;;;;;;;18.17;100.00;156032.88;4954743;29;20443;-75
2021/06/25 11:10:22;;;;;;;6.87;6.17;;;;;;;18.06;100.00;156002.91;4937399;29;20784;-76
2021/06/25 11:13:21;;;;;;;7.17;6.40;;;;;;;18.03;100.00;155996.41;4954294;29;20447;-75
2021/06/25 11:15:59;;;;;;;7.10;6.40;;;;;;;17.95;100.00;155974.31;4922051;29;20447;-76
2021/06/25 11:18:44;;;;;;;7.50;6.60;;;;;;;17.98;100.00;155982.06;4936648;29;20447;-76
2021/06/25 11:21:41;;;;;;;8.17;7.20;;;;;;;18.03;100.00;155996.41;4936999;29;20464;-75
2021/06/25 11:24:47;;;;;;;8.27;7.47;;;;;;;18.05;100.00;156001.66;4940767;28;20563;-76
2021/06/25 11:27:22;;;;;;;7.37;6.63;;;;;;;18.19;100.00;156038.09;4936500;29;20550;-75
2021/06/25 11:29:58;;;;;;;7.73;6.80;;;;;;;18.28;100.00;156060.22;4936906;29;20842;-75
2021/06/25 11:32:34;;;;;;;7.30;6.60;;;;;;;18.41;100.00;156092.78;4937004;29;20451;-75
2021/06/25 11:35:36;;;;;;;8.00;7.20;;;;;;;18.56;100.00;156131.94;4934625;29;20463;-75
2021/06/25 11:38:13;;;;;;;6.53;5.83;;;;;;;18.73;100.00;156177.53;4926186;29;20439;-75
2021/06/25 11:40:49;;;;;;;7.77;7.07;;;;;;;18.78;98.79;156190.53;4936131;29;20542;-76
2021/06/25 11:43:24;;;;;;;9.20;8.27;;;;;;;18.78;99.75;156190.53;4936961;29;20470;-75
2021/06/25 11:46:00;;;;;;;9.33;7.80;;;;;;;18.76;100.00;156184.03;4936483;29;20561;-76
2021/06/25 11:48:37;;;;;;;9.60;8.70;;;;;;;18.72;98.33;156173.59;4936647;29;20459;-75
2021/06/25 11:51:13;;;;;;;8.70;7.80;;;;;;;18.73;100.00;156176.22;4954533;29;20436;-76
2021/06/25 11:53:50;;;;;;;12.70;8.60;;;;;;;18.63;99.18;156150.16;4954214;29;20443;-75
2021/06/25 11:56:26;;;;;;;10.63;9.30;;;;;;;18.63;98.22;156150.16;4953774;29;20927;-75
2021/06/25 11:59:03;;;;;;;11.27;10.07;;;;;;;18.79;99.50;156191.84;4936795;29;20478;-76
2021/06/25 12:01:49;;;;;;;13.40;9.80;;;;;;;18.78;97.68;156190.53;4936994;29;20459;-75
2021/06/25 12:04:38;;;;;;;12.60;9.73;;;;;;;18.88;98.46;156214.03;4933650;28;20483;-75
2021/06/25 12:07:15;;;;;;;10.93;9.23;;;;;;;18.92;97.20;156225.72;4930556;29;20452;-75
2021/06/25 12:09:54;;;;;;;16.27;10.90;;;;;;;18.96;96.08;156236.13;4948106;29;20937;-75
2021/06/25 12:12:31;;;;;;;10.57;8.53;;;;;;;19.03;94.39;156253.09;4926683;29;20447;-75
2021/06/25 12:15:09;;;;;;;9.20;7.70;;;;;;;19.28;97.69;156319.53;4936035;29;20495;-75